KEWR

Newark Liberty International Airport

Newark, New Jersey, USA
METAR KEWR 250151Z 28008KT 10SM -RA FEW040 SCT060 BKN110 BKN150 23/19 A2982 RMK AO2 PK WND 28030/0056 LTG DSNT SE RAB0055 TSB0059E41 SLP098 OCNL LTGIC DSNT SE CB DSNT SE MOV E P0001 T02280189 $
Observed Flight Rules
Jun-25 @ 01:51 UTC (29 minutes ago) Visual Flight Rules
Wind Visibility Clouds Conditions
280° at 8 knots 10 miles
  • Few at 4,000' AGL
  • Scattered at 6,000' AGL
  • Broken at 11,000' AGL
  • Broken at 15,000' AGL
  • Light Rain
Temperatures Readings Precipitation
Current 23°C / 73°F
Dewpoint 19°C / 66°F
Humidity 78%
Altimeter 29.82" Hg
Pressure 1009.8 hPa
Elevation 7
Current Rain 0.01
METAR KEWR 250151Z 28008KT 10SM -RA FEW040 SCT060 BKN110 BKN150 23/19 A2982 RMK AO2 PK WND 28030/0056 LTG DSNT SE RAB0055 TSB0059E41 SLP098 OCNL LTGIC DSNT SE CB DSNT SE MOV E P0001 T02280189 $
Observed Flight Rules
Jun-25 @ 01:51 UTC
(29 minutes ago)
VFR
Wind Visibility
280° at 8 knots 10 miles
Clouds
  • Few at 4,000' AGL
  • Scattered at 6,000' AGL
  • Broken at 11,000' AGL
  • Broken at 15,000' AGL
Conditions
  • Light Rain
Temperature Dewpoint
23°C / 73°F 19°C / 66°F
Humidity Altimeter Pressure
78% 29.82" Hg 1009.8 hPa
Current Rain
0.01